Billy Bishop Toronto City Centre Airport
CYTZ : rendu visible

Aérodrome :











RETROUVEZ-NOUS SUR...

 
LOGIN :

S'inscrire | Disclaimer

   EN    FR    IT 

 









Légende :    VFR   VFR Marginal   IFR   IFR Intensif   IFR Très Intensif
Visi : 
Plafond : 
>= 8 km
>= 3000ft
5 à 8 km
1000 à 3000 ft
1500m à 5 km
500 à 1000 ft
800 à 1500m
200 à 500 ft
< 800m
< 200 ft
Symboles :   Orages  Brouillard  Fortes neiges  Fortes précipitations  Vent > 20 kt






- Altitude de l'aérodrome : 251 ft
- Code IATA : YTZ


CYTZ - Billy Bishop Toronto City Centre

DERNIER METAR :
  • 300200Z AUTO 29010G15KT 9SM OVC070 17/12 A2987 RMK SLP118 DENSITY ALT 500FT

METARs EXPIRÉS :
  • 300100Z AUTO 30012G18KT 9SM OVC070 17/12 A2985 RMK SLP109 DENSITY ALT 600FT
  • 300000Z AUTO 31015G20KT 9SM OVC080 17/12 A2982 RMK SLP100 DENSITY ALT 600FT

TAF TAF CYTZ
Valide du 30 à 02h jusqu'au 31 à 02h UTC


300138Z 3002/3102 31012KT P6SM BKN070
TEMPO 3002/3004 SCT080
FM300400 25008KT P6SM FEW060
FM300800 23008KT P6SM BKN020
FM301400 26012G22KT P6SM BKN030
BECMG 3016/3018 29015G25KT
BECMG 3022/3024 34010KT RMK FCST BASED ON AUTO OBS. NXT FCST BY 300800Z
FIR CZYZ / Amérique du Nord



MET'MAP, la Météo Aéronautique d'un coup d'oeil ! - Copyright ORBIFLY Décembre 2007 - Disclaimer

ORBIFLY MET'MAP TEAM :

Programmation & Développement : Alexandra Zaïnal
Sur une idée originale de : Baudouin d'Aumeries
Assistance à la programmation : Marc-Olivier Méhu
Soutien technique & logistique : Manuel Goepfert

Contact : metmap@orbifly.com




SOURCES & CREDITS :

   NOAA       Earth
Advisory